Aviation Digital Data Service (ADDS)

Output produced by METARs form (1501 UTC 19 April 2019)
found at http://www.aviationweather.gov/metar/data/
 
Forecast for: LYTV (TIVAT , CS)
Text: TAF LYTV 191100Z 1912/2012 02010G20KT CAVOK TX22/1912Z TN10/2004Z
Forecast period: 1200 UTC 19 April 2019 to 1200 UTC 20 April 2019
Forecast type: FROM: standard forecast or significant change
Winds: from the NNE (20 degrees) at 12 MPH (10 knots; 5.1 m/s)
gusting to 23 MPH (20 knots; 10.3 m/s)
Visibility: 6 or more miles 10+ km)
Ceiling: unknown
Clouds: missing
Weather: no significant weather forecast for this period
Text: TEMPO 1912/1916 25008KT
Forecast period: 1200 to 1600 UTC 19 April 2019
Forecast type: TEMPORARY: The following changes expected for less than half the time period
Winds: from the WSW (250 degrees) at 9 MPH (8 knots; 4.1 m/s)
Visibility: missing
Ceiling: unknown
Clouds: missing
Weather: no significant weather forecast for this period